Time;durP1;ratioP1;P1;durP2;ratioP2;P2;SDS_P1;SDS_P2;PMS_P1;PMS_P2;Temp;Humidity;BMP_temperature;BMP_pressure;BME280_temperature;BME280_humidity;BME280_pressure;Samples;Min_cycle;Max_cycle;Signal;HPM_P1;HPM_P2
2023/10/26 00:00:13;;;;;;;17.05;9.85;;;;;;;9.55;100.00;99404.94;1026897;28;20352;-49
2023/10/26 00:00:44;;;;;;;13.32;11.18;;;;;;;9.47;100.00;99405.34;1027166;28;20395;-51
2023/10/26 00:01:16;;;;;;;13.68;10.75;;;;;;;9.48;100.00;99408.81;1027646;28;20300;-49
2023/10/26 00:01:48;;;;;;;10.77;8.95;;;;;;;9.50;100.00;99401.41;1031660;28;20305;-48
2023/10/26 00:02:19;;;;;;;14.25;10.02;;;;;;;9.51;100.00;99408.31;1031620;28;20798;-51
2023/10/26 00:02:52;;;;;;;12.13;9.05;;;;;;;9.53;100.00;99406.22;1031451;28;20293;-49
2023/10/26 00:03:23;;;;;;;12.05;9.48;;;;;;;9.45;100.00;99407.44;1031561;28;20321;-54
2023/10/26 00:03:55;;;;;;;15.52;10.25;;;;;;;9.47;100.00;99410.66;1031572;28;20315;-54
2023/10/26 00:04:30;;;;;;;13.25;10.98;;;;;;;9.47;100.00;99408.00;1031741;28;20563;-49
2023/10/26 00:05:03;;;;;;;11.45;9.93;;;;;;;9.49;100.00;99407.75;1032316;28;20846;-55
2023/10/26 00:05:43;;;;;;;;;;;;;;;9.57;100.00;99410.78;1033686;28;20294;-49
2023/10/26 00:06:17;;;;;;;12.88;9.63;;;;;;;9.52;100.00;99416.03;1032637;28;19922;-49
2023/10/26 00:06:51;;;;;;;12.18;9.93;;;;;;;9.58;100.00;99409.75;1031567;28;20665;-54
2023/10/26 00:07:22;;;;;;;11.32;9.43;;;;;;;9.64;100.00;99401.88;1031455;28;21298;-55
2023/10/26 00:07:54;;;;;;;13.73;10.98;;;;;;;9.52;100.00;99415.25;1027479;28;20656;-54
2023/10/26 00:08:25;;;;;;;24.63;10.48;;;;;;;9.56;100.00;99414.50;1031185;28;20371;-54
2023/10/26 00:08:57;;;;;;;12.95;10.25;;;;;;;9.50;100.00;99412.84;1031086;28;20289;-54
2023/10/26 00:09:29;;;;;;;12.07;10.02;;;;;;;9.51;100.00;99411.78;1031783;28;20297;-55
2023/10/26 00:10:00;;;;;;;11.48;9.32;;;;;;;9.48;100.00;99414.94;1035149;28;20289;-55
2023/10/26 00:10:32;;;;;;;12.95;10.10;;;;;;;9.54;100.00;99408.63;1031854;28;20814;-55
2023/10/26 00:11:04;;;;;;;13.32;9.50;;;;;;;9.53;100.00;99409.69;1029918;28;20306;-54
2023/10/26 00:11:35;;;;;;;11.07;9.60;;;;;;;9.51;100.00;99406.47;1031699;28;20290;-54
2023/10/26 00:12:07;;;;;;;13.43;10.27;;;;;;;9.51;100.00;99411.78;1031393;28;20301;-54
2023/10/26 00:12:39;;;;;;;13.55;9.50;;;;;;;9.50;100.00;99412.84;1031615;28;20297;-55
2023/10/26 00:13:10;;;;;;;13.50;10.40;;;;;;;9.49;100.00;99405.91;1031554;28;20305;-54
2023/10/26 00:13:42;;;;;;;13.90;9.55;;;;;;;9.50;100.00;99407.50;1031421;28;20300;-55
2023/10/26 00:14:14;;;;;;;12.02;9.43;;;;;;;9.52;100.00;99416.03;1031592;28;20522;-54
2023/10/26 00:14:45;;;;;;;11.65;10.52;;;;;;;9.52;100.00;99417.91;1031644;28;20387;-53
2023/10/26 00:15:17;;;;;;;12.82;10.30;;;;;;;9.53;100.00;99412.34;1031307;28;20383;-54
2023/10/26 00:15:49;;;;;;;16.65;10.07;;;;;;;9.57;100.00;99413.47;1031611;28;20293;-54
2023/10/26 00:16:21;;;;;;;12.52;9.30;;;;;;;9.53;100.00;99412.34;1031290;28;20384;-50
2023/10/26 00:16:52;;;;;;;10.85;9.75;;;;;;;9.53;100.00;99420.31;1031433;28;20301;-49
2023/10/26 00:17:24;;;;;;;18.90;9.45;;;;;;;9.54;100.00;99419.25;1031543;28;20301;-50
2023/10/26 00:17:56;;;;;;;10.30;8.77;;;;;;;9.54;100.00;99418.47;1031664;28;20305;-51
2023/10/26 00:18:28;;;;;;;11.38;9.13;;;;;;;9.49;100.00;99419.19;1031141;28;20962;-50
2023/10/26 00:19:00;;;;;;;11.68;10.02;;;;;;;9.53;100.00;99430.94;1031450;28;20672;-54
2023/10/26 00:19:32;;;;;;;12.05;9.95;;;;;;;9.55;100.00;99425.38;1031678;28;20388;-54
2023/10/26 00:20:07;;;;;;;12.68;9.82;;;;;;;9.56;100.00;99427.81;1031330;28;20304;-54
2023/10/26 00:20:39;;;;;;;10.48;9.23;;;;;;;9.53;100.00;99416.84;1027299;28;20293;-54
2023/10/26 00:21:10;;;;;;;13.02;9.85;;;;;;;9.52;100.00;99420.56;1027268;28;20400;-54
2023/10/26 00:21:42;;;;;;;12.68;9.73;;;;;;;9.50;100.00;99423.47;1023156;29;20361;-48
2023/10/26 00:22:14;;;;;;;12.63;10.07;;;;;;;9.47;100.00;99425.81;1023562;28;20310;-48
2023/10/26 00:22:45;;;;;;;16.45;10.52;;;;;;;9.50;100.00;99425.31;1027375;28;20790;-54
2023/10/26 00:23:17;;;;;;;12.35;10.38;;;;;;;9.51;100.00;99425.06;1028009;28;20306;-53
2023/10/26 00:23:48;;;;;;;14.00;9.85;;;;;;;9.53;100.00;99427.47;1031593;28;20864;-55
2023/10/26 00:24:20;;;;;;;13.70;9.93;;;;;;;9.48;100.00;99425.56;1031469;28;20301;-54
2023/10/26 00:24:52;;;;;;;12.23;9.90;;;;;;;9.46;100.00;99422.34;1031190;28;20323;-54
2023/10/26 00:25:26;;;;;;;13.55;10.43;;;;;;;9.45;100.00;99426.06;1026981;28;20305;-53
2023/10/26 00:25:58;;;;;;;11.52;9.88;;;;;;;9.44;100.00;99424.44;1027148;28;20305;-52
2023/10/26 00:26:29;;;;;;;14.63;10.00;;;;;;;9.41;100.00;99429.44;1027090;28;20445;-49
2023/10/26 00:27:02;;;;;;;12.77;10.20;;;;;;;9.41;100.00;99424.13;1027950;28;20451;-49
2023/10/26 00:27:34;;;;;;;14.27;10.85;;;;;;;9.43;100.00;99422.84;1031476;28;20540;-48
2023/10/26 00:28:06;;;;;;;16.48;10.45;;;;;;;9.40;100.00;99423.31;1031070;28;20350;-49
2023/10/26 00:28:39;;;;;;;12.25;9.95;;;;;;;9.34;100.00;99424.31;1031001;28;20780;-48
2023/10/26 00:29:11;;;;;;;13.45;10.30;;;;;;;9.34;100.00;99421.66;1031037;28;20780;-48
2023/10/26 00:29:45;;;;;;;11.63;10.05;;;;;;;9.38;100.00;99430.75;1031164;28;20380;-48
2023/10/26 00:30:17;;;;;;;13.52;10.27;;;;;;;9.37;100.00;99428.31;1027190;28;20692;-48
2023/10/26 00:30:49;;;;;;;11.52;10.02;;;;;;;9.38;100.00;99427.28;1026993;28;20316;-49
2023/10/26 00:31:23;;;;;;;13.05;9.55;;;;;;;9.36;100.00;99422.19;1026983;28;20907;-48
2023/10/26 00:31:55;;;;;;;13.32;9.88;;;;;;;9.38;100.00;99425.41;1027388;28;20896;-53
2023/10/26 00:32:27;;;;;;;11.55;10.02;;;;;;;9.38;100.00;99427.28;1027822;28;20587;-53
2023/10/26 00:32:59;;;;;;;13.75;10.30;;;;;;;9.40;100.00;99433.97;1027746;28;20350;-54
2023/10/26 00:33:30;;;;;;;11.57;9.50;;;;;;;9.41;100.00;99435.56;1027357;28;20666;-54
2023/10/26 00:34:02;;;;;;;14.80;10.70;;;;;;;9.39;100.00;99432.34;1027434;28;20357;-52
2023/10/26 00:34:34;;;;;;;11.60;9.55;;;;;;;9.40;100.00;99433.97;1031096;28;20814;-53
2023/10/26 00:35:07;;;;;;;20.80;11.75;;;;;;;9.43;100.00;99433.47;1027102;28;20302;-53
2023/10/26 00:35:39;;;;;;;13.20;11.23;;;;;;;9.44;100.00;99435.06;1026575;28;20309;-54
2023/10/26 00:36:10;;;;;;;11.05;9.90;;;;;;;9.40;100.00;99431.31;1026956;28;20324;-54
2023/10/26 00:36:42;;;;;;;17.00;14.05;;;;;;;9.38;100.00;99433.41;1027486;28;20299;-49
2023/10/26 00:37:13;;;;;;;12.73;10.27;;;;;;;9.34;100.00;99432.28;1030874;28;20324;-47
2023/10/26 00:37:45;;;;;;;12.05;10.20;;;;;;;9.36;100.00;99438.16;1031310;28;20296;-48
2023/10/26 00:38:16;;;;;;;12.52;9.73;;;;;;;9.45;100.00;99447.31;1031482;28;20784;-48
2023/10/26 00:38:48;;;;;;;17.58;10.30;;;;;;;9.41;100.00;99442.72;1031462;28;20661;-49
2023/10/26 00:39:20;;;;;;;15.90;11.32;;;;;;;9.42;100.00;99439.84;1031821;28;20323;-48
2023/10/26 00:39:54;;;;;;;15.05;12.30;;;;;;;9.38;100.00;99438.72;1031220;28;20347;-49
2023/10/26 00:40:26;;;;;;;13.75;11.15;;;;;;;9.39;100.00;99442.97;1027067;28;20302;-49
2023/10/26 00:40:57;;;;;;;14.30;10.73;;;;;;;9.39;100.00;99442.97;1027346;28;20313;-50
2023/10/26 00:41:30;;;;;;;13.77;10.93;;;;;;;9.41;100.00;99445.38;1023367;29;20317;-48
2023/10/26 00:42:02;;;;;;;14.77;11.10;;;;;;;9.44;100.00;99440.38;1019932;29;20298;-54
2023/10/26 00:42:34;;;;;;;12.75;11.15;;;;;;;9.42;100.00;99442.50;1023218;29;20290;-53
2023/10/26 00:43:05;;;;;;;16.40;10.65;;;;;;;9.42;100.00;99442.50;1027817;28;20302;-54
2023/10/26 00:43:37;;;;;;;12.98;10.35;;;;;;;9.39;100.00;99445.63;1031654;28;20294;-53
2023/10/26 00:44:08;;;;;;;17.17;11.23;;;;;;;9.45;100.00;99447.31;1035041;28;20304;-52
2023/10/26 00:44:40;;;;;;;14.00;10.30;;;;;;;9.43;100.00;99441.44;1034900;28;20659;-53
2023/10/26 00:45:12;;;;;;;12.02;10.00;;;;;;;9.44;100.00;99445.72;1031194;28;20297;-54
2023/10/26 00:45:44;;;;;;;16.02;11.65;;;;;;;9.44;100.00;99444.91;1031030;28;20305;-53
2023/10/26 00:46:15;;;;;;;12.50;10.70;;;;;;;9.43;100.00;99446.75;1030638;28;20312;-53
2023/10/26 00:46:51;;;;;;;14.82;11.05;;;;;;;9.45;100.00;99447.31;1030518;28;20312;-53
2023/10/26 00:47:24;;;;;;;13.68;11.27;;;;;;;9.50;100.00;99444.72;1030921;28;20285;-53
2023/10/26 00:47:56;;;;;;;12.85;10.90;;;;;;;9.41;100.00;99442.72;1029439;28;20301;-53
2023/10/26 00:48:29;;;;;;;13.13;10.57;;;;;;;9.41;100.00;99445.38;1027126;28;20297;-54
2023/10/26 00:49:01;;;;;;;12.48;10.23;;;;;;;9.48;100.00;99446.81;1027269;28;20302;-53
2023/10/26 00:49:36;;;;;;;15.77;10.75;;;;;;;9.46;100.00;99450.78;1025823;28;20299;-53
2023/10/26 00:50:08;;;;;;;16.25;11.40;;;;;;;9.47;100.00;99450.53;1032891;28;20304;-53
2023/10/26 00:50:42;;;;;;;12.40;10.52;;;;;;;9.45;100.00;99455.28;1035052;28;20300;-48
2023/10/26 00:51:14;;;;;;;19.25;11.40;;;;;;;9.39;100.00;99445.63;1035334;28;20304;-49
2023/10/26 00:51:49;;;;;;;15.65;10.35;;;;;;;9.44;100.00;99448.38;1030363;28;20305;-47
2023/10/26 00:52:21;;;;;;;15.45;11.07;;;;;;;9.41;100.00;99446.19;1022986;29;20381;-50
2023/10/26 00:52:54;;;;;;;12.15;10.27;;;;;;;9.39;100.00;99453.59;1023946;29;20337;-49
2023/10/26 00:53:27;;;;;;;18.75;11.82;;;;;;;9.37;100.00;99450.38;1024107;28;20397;-47
2023/10/26 00:53:59;;;;;;;12.43;9.88;;;;;;;9.38;100.00;99449.34;1024136;28;20303;-48
2023/10/26 00:54:31;;;;;;;13.57;10.65;;;;;;;9.42;100.00;99453.13;1026819;28;21366;-47
2023/10/26 00:55:07;;;;;;;14.55;10.98;;;;;;;9.39;100.00;99453.59;1026711;28;20855;-47
2023/10/26 00:55:39;;;;;;;15.70;11.60;;;;;;;9.43;100.00;99460.03;1024234;28;20441;-48
2023/10/26 00:56:12;;;;;;;15.25;11.68;;;;;;;9.50;100.00;99458.03;1026837;28;20317;-49
2023/10/26 00:56:43;;;;;;;13.75;10.88;;;;;;;9.46;100.00;99459.56;1026909;28;20321;-48
2023/10/26 00:57:18;;;;;;;11.43;9.90;;;;;;;9.55;100.00;99457.28;1027717;28;20308;-49
2023/10/26 00:57:50;;;;;;;17.30;11.00;;;;;;;9.55;100.00;99457.28;1026233;28;20306;-47
2023/10/26 00:58:22;;;;;;;13.20;10.57;;;;;;;9.51;100.00;99451.66;1023161;29;20657;-49
2023/10/26 00:58:55;;;;;;;13.95;11.55;;;;;;;9.51;100.00;99451.66;1023157;29;20442;-49
2023/10/26 00:59:29;;;;;;;16.15;11.00;;;;;;;9.45;100.00;99449.97;1019525;29;20443;-49
2023/10/26 01:00:02;;;;;;;12.65;10.02;;;;;;;9.46;100.00;99448.94;1024355;28;20307;-54
2023/10/26 01:00:34;;;;;;;15.70;11.13;;;;;;;9.50;100.00;99446.59;1027248;28;20306;-53
2023/10/26 01:01:06;;;;;;;13.85;10.27;;;;;;;9.46;100.00;99456.91;1023933;28;20294;-54
2023/10/26 01:01:37;;;;;;;13.23;10.30;;;;;;;9.48;100.00;99452.13;1031042;28;20376;-54
2023/10/26 01:02:09;;;;;;;14.70;11.65;;;;;;;9.49;100.00;99452.94;1030770;28;20304;-54
2023/10/26 01:02:41;;;;;;;17.38;12.45;;;;;;;9.52;100.00;99453.25;1027255;28;20320;-54
2023/10/26 01:03:14;;;;;;;14.20;11.70;;;;;;;9.54;100.00;99453.81;1026474;28;20302;-54
2023/10/26 01:03:46;;;;;;;15.07;11.50;;;;;;;9.50;100.00;99452.69;1019052;29;20307;-54
2023/10/26 01:04:18;;;;;;;14.20;10.70;;;;;;;9.48;100.00;99452.13;1023310;28;20315;-53
2023/10/26 01:04:50;;;;;;;15.32;10.30;;;;;;;9.44;100.00;99451.03;1027850;28;20772;-53
2023/10/26 01:05:22;;;;;;;14.57;11.10;;;;;;;9.35;100.00;99457.00;1028382;28;20672;-53
2023/10/26 01:05:54;;;;;;;13.57;10.00;;;;;;;9.39;100.00;99455.47;1023542;28;20398;-54
2023/10/26 01:06:26;;;;;;;16.00;11.38;;;;;;;9.39;100.00;99450.16;1024332;28;20755;-53
2023/10/26 01:06:57;;;;;;;19.90;12.68;;;;;;;9.38;100.00;99457.31;1023734;28;20311;-53
2023/10/26 01:07:29;;;;;;;15.07;11.35;;;;;;;9.40;100.00;99457.88;1027451;28;20607;-54
2023/10/26 01:08:00;;;;;;;14.30;11.07;;;;;;;9.38;100.00;99451.19;1031164;28;20301;-54
2023/10/26 01:08:32;;;;;;;13.73;10.23;;;;;;;9.38;100.00;99452.00;1031031;28;20312;-54
2023/10/26 01:09:04;;;;;;;12.82;10.98;;;;;;;9.38;100.00;99454.66;1030701;28;20308;-54
2023/10/26 01:09:36;;;;;;;17.10;10.05;;;;;;;9.41;100.00;99448.03;1027110;28;20305;-54
2023/10/26 01:10:08;;;;;;;16.58;11.63;;;;;;;9.41;100.00;99446.19;1026966;28;20634;-48
2023/10/26 01:10:39;;;;;;;12.43;10.00;;;;;;;9.45;100.00;99449.16;1026520;28;20316;-48
2023/10/26 01:11:11;;;;;;;14.70;11.05;;;;;;;9.44;100.00;99453.69;1023367;28;20338;-49
2023/10/26 01:11:43;;;;;;;17.50;11.60;;;;;;;9.42;100.00;99453.13;1026857;28;20513;-48
2023/10/26 01:12:16;;;;;;;18.67;11.55;;;;;;;9.48;100.00;99462.78;1026779;28;20333;-47
2023/10/26 01:12:48;;;;;;;17.08;11.38;;;;;;;9.46;100.00;99454.25;1032854;28;20300;-48
2023/10/26 01:13:20;;;;;;;18.00;11.10;;;;;;;9.45;100.00;99457.94;1034734;28;20972;-54
2023/10/26 01:13:51;;;;;;;13.95;10.98;;;;;;;9.47;100.00;99453.19;1031306;28;20301;-54
2023/10/26 01:14:24;;;;;;;14.82;11.00;;;;;;;9.42;100.00;99453.13;1026433;28;22902;-54
2023/10/26 01:14:55;;;;;;;15.23;10.00;;;;;;;9.49;100.00;99463.56;1022840;29;20867;-54
2023/10/26 01:15:27;;;;;;;17.38;10.90;;;;;;;9.45;100.00;99462.47;1023556;28;20295;-54
2023/10/26 01:15:59;;;;;;;15.88;11.38;;;;;;;9.36;100.00;99453.28;1031623;28;20862;-54
2023/10/26 01:16:31;;;;;;;14.80;11.25;;;;;;;9.40;100.00;99460.53;1034943;28;20822;-53
2023/10/26 01:17:03;;;;;;;13.15;10.88;;;;;;;9.38;100.00;99462.63;1034966;28;20300;-54
2023/10/26 01:17:35;;;;;;;13.73;10.90;;;;;;;9.41;100.00;99456.81;1034324;28;20801;-54
2023/10/26 01:18:07;;;;;;;13.73;11.20;;;;;;;9.37;100.00;99455.69;1026995;28;20306;-53
2023/10/26 01:18:38;;;;;;;12.88;10.75;;;;;;;9.40;100.00;99452.56;1027060;28;20298;-54
2023/10/26 01:19:10;;;;;;;12.00;10.02;;;;;;;9.39;100.00;99458.91;1026928;28;20317;-54
2023/10/26 01:19:43;;;;;;;14.38;11.00;;;;;;;9.37;100.00;99458.34;1027683;28;20680;-54
2023/10/26 01:20:19;;;;;;;14.43;11.48;;;;;;;9.40;100.00;99455.22;1031260;28;20343;-54
2023/10/26 01:20:50;;;;;;;13.02;10.07;;;;;;;9.43;100.00;99454.72;1032286;28;20403;-48
2023/10/26 01:21:24;;;;;;;13.52;10.77;;;;;;;9.41;100.00;99456.03;1032069;28;20460;-48
2023/10/26 01:21:57;;;;;;;17.15;10.27;;;;;;;9.48;100.00;99462.78;1034992;28;20327;-48
2023/10/26 01:22:29;;;;;;;13.10;11.23;;;;;;;9.51;100.00;99462.28;1033275;28;20305;-53
2023/10/26 01:23:03;;;;;;;13.90;10.73;;;;;;;9.42;100.00;99458.44;1032168;28;20305;-54
2023/10/26 01:23:35;;;;;;;12.80;11.15;;;;;;;9.49;100.00;99463.56;1031077;28;20384;-54
2023/10/26 01:24:07;;;;;;;14.65;11.82;;;;;;;9.46;100.00;99453.44;1027047;28;20306;-54
2023/10/26 01:24:39;;;;;;;14.13;11.10;;;;;;;9.46;100.00;99454.25;1022824;29;20397;-52
2023/10/26 01:25:11;;;;;;;13.88;10.88;;;;;;;9.39;100.00;99458.91;1022716;28;20784;-54
2023/10/26 01:25:43;;;;;;;12.88;10.07;;;;;;;9.41;100.00;99451.50;1023473;28;20306;-48
2023/10/26 01:26:14;;;;;;;19.33;12.18;;;;;;;9.44;100.00;99456.34;1023237;28;20302;-48
2023/10/26 01:26:46;;;;;;;17.13;11.35;;;;;;;9.42;100.00;99458.44;1026704;28;20294;-49
2023/10/26 01:27:17;;;;;;;12.18;10.88;;;;;;;9.41;100.00;99467.44;1027095;28;20294;-49
2023/10/26 01:27:49;;;;;;;14.13;9.25;;;;;;;9.45;100.00;99463.25;1027274;28;20321;-48
2023/10/26 01:28:23;;;;;;;10.70;9.27;;;;;;;9.49;100.00;99456.41;1031231;28;20300;-48
2023/10/26 01:28:54;;;;;;;14.02;9.43;;;;;;;9.50;100.00;99468.66;1026900;28;20444;-48
2023/10/26 01:29:26;;;;;;;14.27;10.55;;;;;;;9.45;100.00;99465.91;1022743;28;20314;-48
2023/10/26 01:29:58;;;;;;;17.20;10.82;;;;;;;9.45;100.00;99467.78;1023323;28;20298;-48
2023/10/26 01:30:31;;;;;;;19.92;11.50;;;;;;;9.38;100.00;99467.13;1027817;28;20301;-49
2023/10/26 01:31:03;;;;;;;15.18;9.35;;;;;;;9.46;100.00;99462.22;1030625;28;20332;-49
2023/10/26 01:31:35;;;;;;;13.82;10.95;;;;;;;9.40;100.00;99465.84;1030337;28;20392;-50
2023/10/26 01:32:07;;;;;;;12.35;10.70;;;;;;;9.40;100.00;99465.84;1031003;28;20294;-49
2023/10/26 01:32:38;;;;;;;12.20;10.02;;;;;;;9.45;100.00;99473.09;1030681;28;20320;-48
2023/10/26 01:33:10;;;;;;;14.18;10.50;;;;;;;9.42;100.00;99469.06;1031555;28;20300;-49
2023/10/26 01:33:43;;;;;;;15.77;10.65;;;;;;;9.42;100.00;99468.25;1026651;28;20369;-49
2023/10/26 01:34:14;;;;;;;12.52;10.93;;;;;;;9.37;100.00;99466.34;1027029;28;20294;-49
2023/10/26 01:34:46;;;;;;;16.48;11.60;;;;;;;9.34;100.00;99466.00;1027343;28;20286;-48
2023/10/26 01:35:18;;;;;;;14.98;11.45;;;;;;;9.37;100.00;99469.00;1027763;28;20948;-48
2023/10/26 01:35:49;;;;;;;11.95;10.65;;;;;;;9.33;100.00;99470.53;1026727;28;20389;-49
2023/10/26 01:36:21;;;;;;;12.32;10.27;;;;;;;9.33;100.00;99465.22;1026708;28;20700;-50
2023/10/26 01:36:53;;;;;;;16.60;11.05;;;;;;;9.36;100.00;99469.22;1026836;28;20673;-49
2023/10/26 01:37:24;;;;;;;13.45;10.70;;;;;;;9.26;100.00;99473.31;1023120;28;20314;-51
2023/10/26 01:37:56;;;;;;;13.35;9.77;;;;;;;9.40;100.00;99471.16;1030925;28;20304;-48
2023/10/26 01:38:28;;;;;;;14.10;10.20;;;;;;;9.23;100.00;99470.34;1030738;28;20344;-54
2023/10/26 01:39:00;;;;;;;14.13;11.52;;;;;;;9.22;100.00;99476.69;1027174;28;20310;-54
2023/10/26 01:39:33;;;;;;;13.80;10.98;;;;;;;9.26;100.00;99472.50;1030388;28;20403;-54
2023/10/26 01:40:07;;;;;;;10.98;9.88;;;;;;;9.24;100.00;99472.75;1022797;28;20389;-54
2023/10/26 01:40:40;;;;;;;12.10;10.05;;;;;;;9.21;100.00;99477.75;1031010;28;20311;-48
2023/10/26 01:41:12;;;;;;;14.82;10.77;;;;;;;9.18;100.00;99472.91;1030803;28;20301;-49
2023/10/26 01:41:44;;;;;;;17.85;10.95;;;;;;;9.12;100.00;99476.53;1031725;28;20297;-49
2023/10/26 01:42:16;;;;;;;13.18;10.98;;;;;;;9.18;100.00;99473.72;1034421;28;20780;-48
2023/10/26 01:42:47;;;;;;;12.18;9.48;;;;;;;9.15;100.00;99468.09;1030594;28;20408;-50
2023/10/26 01:43:19;;;;;;;12.55;10.50;;;;;;;9.17;100.00;99476.63;1030677;28;20305;-50
2023/10/26 01:43:51;;;;;;;13.43;9.57;;;;;;;9.13;100.00;99478.16;1030944;28;20379;-49
2023/10/26 01:44:22;;;;;;;11.30;9.98;;;;;;;9.16;100.00;99475.81;1030954;28;20371;-49
2023/10/26 01:44:55;;;;;;;11.45;9.32;;;;;;;9.19;100.00;99469.22;1026738;28;20433;-48
2023/10/26 01:45:26;;;;;;;15.18;9.98;;;;;;;9.22;100.00;99474.03;1026817;28;20298;-49
2023/10/26 01:45:58;;;;;;;11.93;10.30;;;;;;;9.23;100.00;99480.97;1026618;28;20360;-50
2023/10/26 01:46:30;;;;;;;12.63;10.57;;;;;;;9.09;100.00;99482.34;1027032;28;20310;-54
2023/10/26 01:47:01;;;;;;;12.15;10.50;;;;;;;9.08;100.00;99481.53;1030604;28;20664;-54
2023/10/26 01:47:33;;;;;;;10.95;9.82;;;;;;;9.11;100.00;99477.59;1031148;28;20309;-54
2023/10/26 01:48:05;;;;;;;11.73;9.60;;;;;;;9.11;100.00;99473.06;1026583;28;20337;-54
2023/10/26 01:48:37;;;;;;;12.63;9.90;;;;;;;9.13;100.00;99478.16;1026849;28;20377;-54
2023/10/26 01:49:10;;;;;;;18.25;10.40;;;;;;;9.15;100.00;99476.88;1026854;28;20308;-54
2023/10/26 01:49:44;;;;;;;13.95;11.23;;;;;;;9.14;100.00;99477.91;1026822;28;20440;-54
2023/10/26 01:50:15;;;;;;;17.95;10.27;;;;;;;9.07;100.00;99476.47;1027658;28;20301;-54
2023/10/26 01:50:47;;;;;;;13.13;9.60;;;;;;;9.08;100.00;99478.88;1031360;28;20392;-54
2023/10/26 01:51:21;;;;;;;16.17;10.40;;;;;;;9.02;100.00;99474.50;1026704;28;20306;-51
2023/10/26 01:51:53;;;;;;;13.38;9.88;;;;;;;9.03;100.00;99475.31;1026801;28;20656;-51
2023/10/26 01:52:25;;;;;;;11.50;10.05;;;;;;;8.93;100.00;99475.94;1026443;28;20397;-49
2023/10/26 01:52:57;;;;;;;12.60;9.23;;;;;;;8.90;100.00;99471.91;1027489;28;20341;-49
2023/10/26 01:53:29;;;;;;;12.40;9.80;;;;;;;8.90;100.00;99479.88;1030873;28;20315;-48
2023/10/26 01:54:00;;;;;;;12.30;10.13;;;;;;;8.92;100.00;99480.44;1030646;28;20301;-51
2023/10/26 01:54:32;;;;;;;13.90;9.25;;;;;;;8.93;100.00;99475.94;1030949;28;20297;-48
2023/10/26 01:55:04;;;;;;;12.43;10.88;;;;;;;8.91;100.00;99478.03;1031313;28;20300;-49
2023/10/26 01:55:36;;;;;;;14.15;9.10;;;;;;;8.91;100.00;99475.38;1030857;28;20305;-50
2023/10/26 01:56:07;;;;;;;11.80;10.05;;;;;;;8.91;100.00;99483.34;1026706;28;20676;-49
2023/10/26 01:56:39;;;;;;;15.30;9.85;;;;;;;8.85;100.00;99479.78;1022550;29;20310;-54
2023/10/26 01:57:11;;;;;;;12.02;9.63;;;;;;;8.81;100.00;99478.66;1022757;29;20402;-54
2023/10/26 01:57:42;;;;;;;10.70;9.15;;;;;;;8.80;100.00;99482.38;1018718;29;20726;-54
2023/10/26 01:58:14;;;;;;;11.32;9.07;;;;;;;8.76;100.00;99478.53;1022582;28;20357;-54
2023/10/26 01:58:46;;;;;;;11.75;8.93;;;;;;;8.69;100.00;99475.22;1027095;28;20665;-54
2023/10/26 01:59:17;;;;;;;11.68;8.50;;;;;;;8.72;100.00;99480.06;1023211;28;20306;-54
2023/10/26 01:59:49;;;;;;;10.82;9.73;;;;;;;8.73;100.00;99481.69;1023009;29;20810;-54
2023/10/26 02:00:20;;;;;;;11.80;9.48;;;;;;;8.68;100.00;99490.34;1023130;29;20295;-54
2023/10/26 02:00:52;;;;;;;12.57;8.70;;;;;;;8.70;100.00;99482.16;1021346;28;20340;-54
2023/10/26 02:01:24;;;;;;;16.70;10.77;;;;;;;8.57;100.00;99487.75;1024623;28;20366;-54
2023/10/26 02:01:56;;;;;;;17.42;9.88;;;;;;;8.64;100.00;99483.09;1026962;28;20800;-54
2023/10/26 02:02:27;;;;;;;11.73;9.63;;;;;;;8.62;100.00;99474.56;1030344;28;20716;-54
2023/10/26 02:02:59;;;;;;;14.40;11.13;;;;;;;8.67;100.00;99487.94;1026491;28;20294;-54
2023/10/26 02:03:31;;;;;;;14.02;10.30;;;;;;;8.63;100.00;99486.81;1026812;28;20306;-54
2023/10/26 02:04:03;;;;;;;14.52;9.75;;;;;;;8.59;100.00;99480.34;1026327;28;20309;-54
2023/10/26 02:04:35;;;;;;;10.88;8.65;;;;;;;8.60;100.00;99492.59;1022957;28;20369;-54
2023/10/26 02:05:07;;;;;;;12.98;10.10;;;;;;;8.54;100.00;99485.56;1023065;28;20863;-55
2023/10/26 02:05:39;;;;;;;13.18;8.93;;;;;;;8.48;100.00;99483.84;1023177;28;20738;-54
2023/10/26 02:06:11;;;;;;;10.27;9.02;;;;;;;8.51;100.00;99488.69;1026676;28;20397;-54
2023/10/26 02:06:43;;;;;;;11.52;9.70;;;;;;;8.51;100.00;99492.16;1022786;28;20655;-48
2023/10/26 02:07:14;;;;;;;10.50;8.63;;;;;;;8.56;100.00;99492.25;1023292;28;20306;-48
2023/10/26 02:07:46;;;;;;;12.02;9.88;;;;;;;8.54;100.00;99498.84;1026817;28;20313;-48
2023/10/26 02:08:18;;;;;;;10.75;8.88;;;;;;;8.50;100.00;99497.72;1026570;28;20373;-48
2023/10/26 02:08:49;;;;;;;14.85;9.43;;;;;;;8.52;100.00;99500.94;1031010;28;20297;-49
2023/10/26 02:09:22;;;;;;;13.77;9.23;;;;;;;8.57;100.00;99498.38;1030865;28;20355;-50
2023/10/26 02:09:53;;;;;;;15.30;8.95;;;;;;;8.58;100.00;99500.78;1026739;28;20705;-49
2023/10/26 02:10:29;;;;;;;11.10;9.05;;;;;;;8.58;100.00;99499.97;1026690;28;20310;-49
2023/10/26 02:11:01;;;;;;;12.38;9.90;;;;;;;8.55;100.00;99495.16;1026577;28;20306;-48
2023/10/26 02:11:32;;;;;;;12.73;9.85;;;;;;;8.56;100.00;99504.72;1027673;28;20298;-48
2023/10/26 02:12:04;;;;;;;13.23;9.38;;;;;;;8.57;100.00;99503.69;1026781;28;20788;-55
2023/10/26 02:12:36;;;;;;;14.73;9.32;;;;;;;8.61;100.00;99505.63;1026525;28;20438;-54
2023/10/26 02:13:08;;;;;;;15.10;9.18;;;;;;;8.59;100.00;99507.72;1026746;28;20306;-54
2023/10/26 02:13:40;;;;;;;12.05;10.27;;;;;;;8.60;100.00;99498.69;1027354;28;20793;-54
2023/10/26 02:14:12;;;;;;;12.98;10.30;;;;;;;8.52;100.00;99504.38;1030651;28;20305;-54
2023/10/26 02:14:43;;;;;;;14.00;10.50;;;;;;;8.56;100.00;99502.06;1030877;28;20301;-54
2023/10/26 02:15:15;;;;;;;13.82;10.82;;;;;;;8.56;100.00;99508.19;1026257;28;20306;-53
2023/10/26 02:15:48;;;;;;;12.45;9.93;;;;;;;8.58;100.00;99511.41;1026771;28;20704;-54
2023/10/26 02:16:20;;;;;;;13.30;9.93;;;;;;;8.64;100.00;99504.34;1026606;28;20306;-54
2023/10/26 02:16:51;;;;;;;14.40;9.63;;;;;;;8.68;100.00;99511.59;1026899;28;20567;-54
2023/10/26 02:17:23;;;;;;;12.18;10.00;;;;;;;8.65;100.00;99516.56;1026687;28;20729;-54
2023/10/26 02:17:55;;;;;;;13.40;10.52;;;;;;;8.63;100.00;99508.84;1026784;28;20301;-54
2023/10/26 02:18:27;;;;;;;13.30;10.70;;;;;;;8.53;100.00;99513.97;1030410;28;20313;-54
2023/10/26 02:18:59;;;;;;;18.95;11.85;;;;;;;8.58;100.00;99515.91;1031179;28;20301;-53
2023/10/26 02:19:31;;;;;;;21.13;10.50;;;;;;;8.59;100.00;99507.72;1030693;28;20332;-50
2023/10/26 02:20:03;;;;;;;13.20;10.13;;;;;;;8.63;100.00;99508.84;1026082;28;20302;-49
2023/10/26 02:20:53;;;;;;;14.10;9.38;;;;;;;8.73;100.00;99513.53;1022869;29;20649;-49
2023/10/26 02:21:25;;;;;;;13.50;10.45;;;;;;;8.71;100.00;99510.31;1021481;29;20132;-49
2023/10/26 02:21:57;;;;;;;15.85;11.18;;;;;;;8.76;100.00;99517.56;1025330;28;20372;-54
2023/10/26 02:22:28;;;;;;;13.23;10.27;;;;;;;8.68;100.00;99510.78;1026648;28;20305;-54
2023/10/26 02:23:02;;;;;;;18.45;10.15;;;;;;;8.73;100.00;99513.53;1027183;28;20309;-55
2023/10/26 02:23:33;;;;;;;12.95;10.27;;;;;;;8.80;100.00;99519.53;1030468;28;20386;-54
2023/10/26 02:24:05;;;;;;;15.18;10.95;;;;;;;8.84;100.00;99509.25;1030820;28;20364;-54
2023/10/26 02:24:37;;;;;;;12.95;10.32;;;;;;;8.85;100.00;99506.34;1030742;28;20688;-54
2023/10/26 02:25:09;;;;;;;12.45;10.95;;;;;;;8.87;100.00;99509.56;1030555;28;20286;-54
2023/10/26 02:25:41;;;;;;;17.23;11.55;;;;;;;8.79;100.00;99506.50;1026774;28;20313;-54
2023/10/26 02:26:13;;;;;;;13.15;11.35;;;;;;;8.80;100.00;99513.41;1026765;28;20385;-54
2023/10/26 02:26:45;;;;;;;15.85;11.75;;;;;;;8.85;100.00;99514.31;1022296;29;20358;-54
2023/10/26 02:27:17;;;;;;;13.70;11.32;;;;;;;8.84;100.00;99510.03;1019230;29;20311;-54
2023/10/26 02:27:49;;;;;;;15.13;11.15;;;;;;;8.84;100.00;99504.72;1022881;29;20299;-54
2023/10/26 02:28:21;;;;;;;13.23;10.82;;;;;;;8.86;100.00;99513.28;1023801;28;20773;-48